Main page
METAR-TAF:

METAR-TAF

Airports :

Stornoway Airport

Stornoway, Scotland

latitude: 58-13N, longitude: 006-19W, elevation: 9 m

Current weather observation

The report was made 26 minutes ago, at 15:20 UTC
Wind 17 kt from the West
Temperature 9°C
Humidity 76%
Pressure 1021 hPa
Visibility 10 km or more
Few clouds at a height of 1600 ft
Few clouds at a height of 2000 ft, Cumulonimbus.
Scattered clouds at a height of 2500 ft
showers in vicinity

METAR: EGPO 211520Z 27017KT 9999 VCSH FEW016 FEW020CB SCT025 09/05 Q1021

Time: 16:46 (15:46 UTC)

Forecast

The report was made 1 hour and 49 minutes ago, at 13:57 UTC
Forecast valid from 21 at 15 UTC to 21 at 24 UTC
Wind 20 kt from the West with gusts up to 30 kt
Visibility 10 km or more
Scattered clouds at a height of 2500 ft
Temporary
from 21 at 15 UTC to 21 at 24 UTC
Visibility: 6000 m
Broken clouds at a height of 1200 ft
rain showers

TAF: EGPO 211357Z 2115/2124 27020G30KT 9999 SCT025 TEMPO 2115/2124 6000 SHRA BKN012

Weather observations and forecasts of more than 4000 airports (METAR and TAF reports).

The available stations are represented by yellow and red dots on the map.

Hover mouse over dot to see the name of the station.

Then click to see weather observations and forecasts.

To change the map : click on the green buttons with a black cross to zoom in, on the green button with a dash to zoom out, or on the green arrows for adjacent maps.


METAR-TAF: